sensor_id;sensor_type;location;lat;lon;timestamp;pressure;altitude;pressure_sealevel;temperature;humidity
75629;BME280;64213;46.452;16.994;2022-11-23T00:00:45;98263.00;;;4.00;100.00
75629;BME280;64213;46.452;16.994;2022-11-23T00:03:50;98255.97;;;3.87;100.00
75629;BME280;64213;46.452;16.994;2022-11-23T00:06:53;98249.66;;;3.77;100.00
75629;BME280;64213;46.452;16.994;2022-11-23T00:09:55;98264.41;;;3.78;100.00
75629;BME280;64213;46.452;16.994;2022-11-23T00:12:58;98266.47;;;3.73;100.00
75629;BME280;64213;46.452;16.994;2022-11-23T00:16:04;98263.13;;;3.71;100.00
75629;BME280;64213;46.452;16.994;2022-11-23T00:19:08;98255.69;;;3.65;100.00
75629;BME280;64213;46.452;16.994;2022-11-23T00:22:10;98253.25;;;3.62;100.00
75629;BME280;64213;46.452;16.994;2022-11-23T00:25:12;98264.66;;;3.61;100.00
75629;BME280;64213;46.452;16.994;2022-11-23T00:28:15;98257.94;;;3.57;100.00
75629;BME280;64213;46.452;16.994;2022-11-23T00:31:18;98267.66;;;3.55;100.00
75629;BME280;64213;46.452;16.994;2022-11-23T00:34:21;98261.13;;;3.47;100.00
75629;BME280;64213;46.452;16.994;2022-11-23T00:37:23;98277.47;;;3.51;100.00
75629;BME280;64213;46.452;16.994;2022-11-23T00:40:29;98269.72;;;3.49;100.00
75629;BME280;64213;46.452;16.994;2022-11-23T00:43:32;98272.44;;;3.48;100.00
75629;BME280;64213;46.452;16.994;2022-11-23T00:46:35;98273.28;;;3.48;100.00
75629;BME280;64213;46.452;16.994;2022-11-23T00:49:37;98276.72;;;3.49;100.00
75629;BME280;64213;46.452;16.994;2022-11-23T00:52:39;98275.97;;;3.47;100.00
75629;BME280;64213;46.452;16.994;2022-11-23T00:55:50;98287.47;;;3.44;100.00
75629;BME280;64213;46.452;16.994;2022-11-23T00:58:54;98282.22;;;3.44;100.00
75629;BME280;64213;46.452;16.994;2022-11-23T01:01:57;98287.47;;;3.44;100.00
75629;BME280;64213;46.452;16.994;2022-11-23T01:04:59;98282.16;;;3.46;100.00
75629;BME280;64213;46.452;16.994;2022-11-23T01:08:02;98288.31;;;3.45;100.00
75629;BME280;64213;46.452;16.994;2022-11-23T01:11:07;98285.78;;;3.43;100.00
75629;BME280;64213;46.452;16.994;2022-11-23T01:14:11;98287.47;;;3.44;100.00
75629;BME280;64213;46.452;16.994;2022-11-23T01:17:13;98290.06;;;3.44;100.00
75629;BME280;64213;46.452;16.994;2022-11-23T01:20:16;98291.97;;;3.42;100.00
75629;BME280;64213;46.452;16.994;2022-11-23T01:23:18;98299.88;;;3.41;100.00
75629;BME280;64213;46.452;16.994;2022-11-23T01:26:22;98292.88;;;3.41;100.00
75629;BME280;64213;46.452;16.994;2022-11-23T01:29:25;98293.81;;;3.40;100.00
75629;BME280;64213;46.452;16.994;2022-11-23T01:32:27;98294.00;;;3.37;100.00
75629;BME280;64213;46.452;16.994;2022-11-23T01:35:30;98294.97;;;3.36;100.00
75629;BME280;64213;46.452;16.994;2022-11-23T01:38:32;98298.53;;;3.35;100.00
75629;BME280;64213;46.452;16.994;2022-11-23T01:41:38;98303.00;;;3.33;100.00
75629;BME280;64213;46.452;16.994;2022-11-23T01:44:40;98298.03;;;3.29;100.00
75629;BME280;64213;46.452;16.994;2022-11-23T01:47:43;98304.41;;;3.24;100.00
75629;BME280;64213;46.452;16.994;2022-11-23T01:50:48;98305.41;;;3.22;100.00
75629;BME280;64213;46.452;16.994;2022-11-23T01:53:53;98296.09;;;3.18;100.00
75629;BME280;64213;46.452;16.994;2022-11-23T01:57:01;98306.66;;;3.16;100.00
75629;BME280;64213;46.452;16.994;2022-11-23T02:00:05;98305.91;;;3.14;100.00
75629;BME280;64213;46.452;16.994;2022-11-23T02:03:08;98315.72;;;3.11;100.00
75629;BME280;64213;46.452;16.994;2022-11-23T02:06:15;98311.63;;;3.07;100.00
75629;BME280;64213;46.452;16.994;2022-11-23T02:09:18;98315.25;;;3.04;100.00
75629;BME280;64213;46.452;16.994;2022-11-23T02:12:22;98324.84;;;3.03;100.00
75629;BME280;64213;46.452;16.994;2022-11-23T02:15:24;98324.09;;;3.01;100.00
75629;BME280;64213;46.452;16.994;2022-11-23T02:18:29;98337.44;;;2.97;100.00
75629;BME280;64213;46.452;16.994;2022-11-23T02:21:32;98338.28;;;2.97;100.00
75629;BME280;64213;46.452;16.994;2022-11-23T02:24:40;98340.13;;;2.95;100.00
75629;BME280;64213;46.452;16.994;2022-11-23T02:27:46;98344.72;;;2.92;100.00
75629;BME280;64213;46.452;16.994;2022-11-23T02:30:50;98345.66;;;2.91;100.00
75629;BME280;64213;46.452;16.994;2022-11-23T02:33:53;98341.81;;;2.82;100.00
75629;BME280;64213;46.452;16.994;2022-11-23T02:36:56;98343.56;;;2.67;100.00
75629;BME280;64213;46.452;16.994;2022-11-23T02:40:00;98354.81;;;2.53;100.00
75629;BME280;64213;46.452;16.994;2022-11-23T02:43:05;98353.75;;;2.42;100.00
75629;BME280;64213;46.452;16.994;2022-11-23T02:46:25;98356.16;;;2.30;100.00
75629;BME280;64213;46.452;16.994;2022-11-23T02:49:34;98356.03;;;2.18;100.00
75629;BME280;64213;46.452;16.994;2022-11-23T02:52:36;98357.38;;;2.09;100.00
75629;BME280;64213;46.452;16.994;2022-11-23T02:55:38;98368.81;;;2.06;100.00
75629;BME280;64213;46.452;16.994;2022-11-23T02:58:41;98370.09;;;1.99;100.00
75629;BME280;64213;46.452;16.994;2022-11-23T03:01:43;98377.91;;;1.99;100.00
75629;BME280;64213;46.452;16.994;2022-11-23T03:04:46;98376.59;;;1.92;100.00
75629;BME280;64213;46.452;16.994;2022-11-23T03:07:48;98375.75;;;1.92;100.00
75629;BME280;64213;46.452;16.994;2022-11-23T03:10:50;98376.41;;;1.95;100.00
75629;BME280;64213;46.452;16.994;2022-11-23T03:13:52;98380.84;;;1.93;100.00
75629;BME280;64213;46.452;16.994;2022-11-23T03:16:55;98381.69;;;1.94;100.00
75629;BME280;64213;46.452;16.994;2022-11-23T03:19:57;98381.78;;;1.92;100.00
75629;BME280;64213;46.452;16.994;2022-11-23T03:22:59;98382.53;;;1.94;100.00
75629;BME280;64213;46.452;16.994;2022-11-23T03:26:02;98383.31;;;1.96;100.00
75629;BME280;64213;46.452;16.994;2022-11-23T03:29:12;98392.63;;;2.00;100.00
75629;BME280;64213;46.452;16.994;2022-11-23T03:32:14;98389.94;;;2.02;100.00
75629;BME280;64213;46.452;16.994;2022-11-23T03:35:16;98383.13;;;1.99;100.00
75629;BME280;64213;46.452;16.994;2022-11-23T03:38:19;98394.88;;;2.06;100.00
75629;BME280;64213;46.452;16.994;2022-11-23T03:41:21;98385.97;;;2.10;100.00
75629;BME280;64213;46.452;16.994;2022-11-23T03:44:23;98394.38;;;2.16;100.00
75629;BME280;64213;46.452;16.994;2022-11-23T03:47:26;98394.03;;;2.22;100.00
75629;BME280;64213;46.452;16.994;2022-11-23T03:50:28;98395.53;;;2.26;100.00
75629;BME280;64213;46.452;16.994;2022-11-23T03:53:30;98397.06;;;2.30;100.00
75629;BME280;64213;46.452;16.994;2022-11-23T03:56:33;98401.25;;;2.32;100.00
75629;BME280;64213;46.452;16.994;2022-11-23T03:59:35;98401.06;;;2.36;100.00
75629;BME280;64213;46.452;16.994;2022-11-23T04:02:37;98400.91;;;2.39;100.00
75629;BME280;64213;46.452;16.994;2022-11-23T04:05:39;98405.09;;;2.41;100.00
75629;BME280;64213;46.452;16.994;2022-11-23T04:08:41;98401.56;;;2.42;100.00
75629;BME280;64213;46.452;16.994;2022-11-23T04:11:44;98412.84;;;2.43;100.00
75629;BME280;64213;46.452;16.994;2022-11-23T04:14:46;98410.97;;;2.45;100.00
75629;BME280;64213;46.452;16.994;2022-11-23T04:17:48;98401.56;;;2.42;100.00
75629;BME280;64213;46.452;16.994;2022-11-23T04:20:51;98415.37;;;2.44;100.00
75629;BME280;64213;46.452;16.994;2022-11-23T04:23:53;98415.28;;;2.46;100.00
75629;BME280;64213;46.452;16.994;2022-11-23T04:26:55;98413.59;;;2.45;100.00
75629;BME280;64213;46.452;16.994;2022-11-23T04:29:58;98418.91;;;2.43;100.00
75629;BME280;64213;46.452;16.994;2022-11-23T04:33:00;98415.53;;;2.41;100.00
75629;BME280;64213;46.452;16.994;2022-11-23T04:36:02;98423.66;;;2.37;100.00
75629;BME280;64213;46.452;16.994;2022-11-23T04:39:05;98425.50;;;2.35;100.00
75629;BME280;64213;46.452;16.994;2022-11-23T04:42:10;98437.69;;;2.34;100.00
75629;BME280;64213;46.452;16.994;2022-11-23T04:45:12;98437.75;;;2.32;100.00
75629;BME280;64213;46.452;16.994;2022-11-23T04:48:15;98447.38;;;2.32;100.00
75629;BME280;64213;46.452;16.994;2022-11-23T04:51:17;98442.16;;;2.32;100.00
75629;BME280;64213;46.452;16.994;2022-11-23T04:54:19;98441.47;;;2.28;100.00
75629;BME280;64213;46.452;16.994;2022-11-23T04:57:21;98454.34;;;2.31;100.00
75629;BME280;64213;46.452;16.994;2022-11-23T05:00:24;98453.53;;;2.31;100.00
75629;BME280;64213;46.452;16.994;2022-11-23T05:03:26;98450.06;;;2.30;100.00
75629;BME280;64213;46.452;16.994;2022-11-23T05:06:29;98458.75;;;2.31;100.00
75629;BME280;64213;46.452;16.994;2022-11-23T05:09:31;98464.72;;;2.33;100.00
75629;BME280;64213;46.452;16.994;2022-11-23T05:12:34;98466.41;;;2.34;100.00
75629;BME280;64213;46.452;16.994;2022-11-23T05:15:37;98473.38;;;2.33;100.00
75629;BME280;64213;46.452;16.994;2022-11-23T05:18:39;98467.56;;;2.28;100.00
75629;BME280;64213;46.452;16.994;2022-11-23T05:21:42;98473.62;;;2.29;100.00
75629;BME280;64213;46.452;16.994;2022-11-23T05:24:44;98483.31;;;2.27;100.00
75629;BME280;64213;46.452;16.994;2022-11-23T05:27:46;98486.84;;;2.26;100.00
75629;BME280;64213;46.452;16.994;2022-11-23T05:30:48;98490.38;;;2.25;100.00
75629;BME280;64213;46.452;16.994;2022-11-23T05:33:51;98485.22;;;2.23;100.00
75629;BME280;64213;46.452;16.994;2022-11-23T05:36:53;98483.56;;;2.22;100.00
75629;BME280;64213;46.452;16.994;2022-11-23T05:39:55;98487.94;;;2.22;100.00
75629;BME280;64213;46.452;16.994;2022-11-23T05:42:58;98493.25;;;2.20;100.00
75629;BME280;64213;46.452;16.994;2022-11-23T05:46:01;98495.66;;;2.23;100.00
75629;BME280;64213;46.452;16.994;2022-11-23T05:49:04;98493.00;;;2.25;100.00
75629;BME280;64213;46.452;16.994;2022-11-23T05:52:06;98495.50;;;2.26;100.00
75629;BME280;64213;46.452;16.994;2022-11-23T05:55:08;98495.34;;;2.29;100.00
75629;BME280;64213;46.452;16.994;2022-11-23T05:58:16;98491.72;;;2.32;100.00
75629;BME280;64213;46.452;16.994;2022-11-23T06:01:18;98483.72;;;2.35;100.00
75629;BME280;64213;46.452;16.994;2022-11-23T06:04:21;98486.16;;;2.38;100.00
75629;BME280;64213;46.452;16.994;2022-11-23T06:07:23;98495.50;;;2.42;100.00
75629;BME280;64213;46.452;16.994;2022-11-23T06:10:26;98492.81;;;2.44;100.00
75629;BME280;64213;46.452;16.994;2022-11-23T06:13:28;98503.91;;;2.47;100.00
75629;BME280;64213;46.452;16.994;2022-11-23T06:16:31;98507.28;;;2.49;100.00
75629;BME280;64213;46.452;16.994;2022-11-23T06:19:33;98497.69;;;2.50;100.00
75629;BME280;64213;46.452;16.994;2022-11-23T06:22:36;98512.06;;;2.57;100.00
75629;BME280;64213;46.452;16.994;2022-11-23T06:25:38;98508.47;;;2.60;100.00
75629;BME280;64213;46.452;16.994;2022-11-23T06:28:41;98515.19;;;2.64;100.00
75629;BME280;64213;46.452;16.994;2022-11-23T06:31:44;98518.56;;;2.66;100.00
75629;BME280;64213;46.452;16.994;2022-11-23T06:34:46;98521.72;;;2.71;100.00
75629;BME280;64213;46.452;16.994;2022-11-23T06:37:50;98526.94;;;2.71;100.00
75629;BME280;64213;46.452;16.994;2022-11-23T06:40:52;98533.78;;;2.73;100.00
75629;BME280;64213;46.452;16.994;2022-11-23T06:43:58;98536.22;;;2.76;100.00
75629;BME280;64213;46.452;16.994;2022-11-23T06:47:00;98543.97;;;2.78;100.00
75629;BME280;64213;46.452;16.994;2022-11-23T06:50:02;98550.78;;;2.80;100.00
75629;BME280;64213;46.452;16.994;2022-11-23T06:53:05;98547.16;;;2.83;100.00
75629;BME280;64213;46.452;16.994;2022-11-23T06:56:07;98557.44;;;2.86;100.00
75629;BME280;64213;46.452;16.994;2022-11-23T06:59:10;98559.87;;;2.89;100.00
75629;BME280;64213;46.452;16.994;2022-11-23T07:02:12;98562.31;;;2.92;100.00
75629;BME280;64213;46.452;16.994;2022-11-23T07:05:15;98556.91;;;2.95;100.00
75629;BME280;64213;46.452;16.994;2022-11-23T07:08:18;98564.56;;;2.98;100.00
75629;BME280;64213;46.452;16.994;2022-11-23T07:11:20;98568.78;;;3.01;100.00
75629;BME280;64213;46.452;16.994;2022-11-23T07:14:22;98574.84;;;3.01;100.00
75629;BME280;64213;46.452;16.994;2022-11-23T07:17:25;98570.38;;;3.03;100.00
75629;BME280;64213;46.452;16.994;2022-11-23T07:20:27;98570.56;;;3.00;100.00
75629;BME280;64213;46.452;16.994;2022-11-23T07:23:29;98573.16;;;3.00;100.00
75629;BME280;64213;46.452;16.994;2022-11-23T07:26:32;98584.69;;;2.96;100.00
75629;BME280;64213;46.452;16.994;2022-11-23T07:29:34;98589.19;;;2.94;100.00
75629;BME280;64213;46.452;16.994;2022-11-23T07:32:36;98592.97;;;2.89;100.00
75629;BME280;64213;46.452;16.994;2022-11-23T07:35:39;98591.03;;;2.92;100.00
75629;BME280;64213;46.452;16.994;2022-11-23T07:38:42;98592.72;;;2.93;100.00
75629;BME280;64213;46.452;16.994;2022-11-23T07:41:44;98602.41;;;2.91;100.00
75629;BME280;64213;46.452;16.994;2022-11-23T07:44:52;98602.25;;;2.94;100.00
75629;BME280;64213;46.452;16.994;2022-11-23T07:47:59;98597.03;;;2.94;100.00
75629;BME280;64213;46.452;16.994;2022-11-23T07:51:02;98598.69;;;2.95;100.00
75629;BME280;64213;46.452;16.994;2022-11-23T07:54:04;98602.91;;;2.98;100.00
75629;BME280;64213;46.452;16.994;2022-11-23T07:57:06;98601.25;;;2.97;100.00
75629;BME280;64213;46.452;16.994;2022-11-23T08:00:09;98601.06;;;3.00;100.00
75629;BME280;64213;46.452;16.994;2022-11-23T08:03:12;98588.06;;;2.98;100.00
75629;BME280;64213;46.452;16.994;2022-11-23T08:06:31;98601.47;;;3.08;100.00
75629;BME280;64213;46.452;16.994;2022-11-23T08:09:33;98605.56;;;3.12;100.00
75629;BME280;64213;46.452;16.994;2022-11-23T08:12:36;98609.78;;;3.15;100.00
75629;BME280;64213;46.452;16.994;2022-11-23T08:15:38;98614.84;;;3.18;100.00
75629;BME280;64213;46.452;16.994;2022-11-23T08:18:40;98620.91;;;3.18;100.00
75629;BME280;64213;46.452;16.994;2022-11-23T08:21:43;98620.81;;;3.20;100.00
75629;BME280;64213;46.452;16.994;2022-11-23T08:24:46;98609.78;;;3.15;100.00
75629;BME280;64213;46.452;16.994;2022-11-23T08:28:00;98624.19;;;3.22;100.00
75629;BME280;64213;46.452;16.994;2022-11-23T08:31:07;98632.00;;;3.22;100.00
75629;BME280;64213;46.452;16.994;2022-11-23T08:34:09;98623.44;;;3.20;100.00
75629;BME280;64213;46.452;16.994;2022-11-23T08:37:17;98632.00;;;3.22;100.00
75629;BME280;64213;46.452;16.994;2022-11-23T08:40:20;98629.34;;;3.23;100.00
75629;BME280;64213;46.452;16.994;2022-11-23T08:43:27;98635.41;;;3.24;100.00
75629;BME280;64213;46.452;16.994;2022-11-23T08:46:29;98641.28;;;3.28;100.00
75629;BME280;64213;46.452;16.994;2022-11-23T08:49:32;98637.84;;;3.27;100.00
75629;BME280;64213;46.452;16.994;2022-11-23T08:52:34;98641.94;;;3.31;100.00
75629;BME280;64213;46.452;16.994;2022-11-23T08:55:37;98641.88;;;3.33;100.00
75629;BME280;64213;46.452;16.994;2022-11-23T08:58:39;98645.16;;;3.36;100.00
75629;BME280;64213;46.452;16.994;2022-11-23T09:01:42;98642.44;;;3.38;100.00
75629;BME280;64213;46.452;16.994;2022-11-23T09:04:45;98646.59;;;3.42;100.00
75629;BME280;64213;46.452;16.994;2022-11-23T09:07:47;98661.16;;;3.46;100.00
75629;BME280;64213;46.452;16.994;2022-11-23T09:10:49;98665.25;;;3.50;100.00
75629;BME280;64213;46.452;16.994;2022-11-23T09:13:52;98663.50;;;3.50;100.00
75629;BME280;64213;46.452;16.994;2022-11-23T09:16:54;98654.75;;;3.52;100.00
75629;BME280;64213;46.452;16.994;2022-11-23T09:19:57;98657.25;;;3.53;100.00
75629;BME280;64213;46.452;16.994;2022-11-23T09:22:59;98655.56;;;3.52;100.00
75629;BME280;64213;46.452;16.994;2022-11-23T09:26:03;98658.09;;;3.54;100.00
75629;BME280;64213;46.452;16.994;2022-11-23T09:29:06;98651.94;;;3.55;100.00
75629;BME280;64213;46.452;16.994;2022-11-23T09:32:10;98662.31;;;3.56;100.00
75629;BME280;64213;46.452;16.994;2022-11-23T09:35:12;98669.31;;;3.56;100.00
75629;BME280;64213;46.452;16.994;2022-11-23T09:38:14;98658.09;;;3.54;100.00
75629;BME280;64213;46.452;16.994;2022-11-23T09:48:20;98659.78;;;3.55;100.00
75629;BME280;64213;46.452;16.994;2022-11-23T09:51:27;98651.94;;;3.55;100.00
75629;BME280;64213;46.452;16.994;2022-11-23T09:54:33;98660.69;;;3.54;100.00
75629;BME280;64213;46.452;16.994;2022-11-23T09:57:39;98665.09;;;3.53;100.00
75629;BME280;64213;46.452;16.994;2022-11-23T10:00:47;98655.66;;;3.50;100.00
75629;BME280;64213;46.452;16.994;2022-11-23T10:03:52;98661.47;;;3.56;100.00
75629;BME280;64213;46.452;16.994;2022-11-23T10:07:02;98669.19;;;3.57;100.00
75629;BME280;64213;46.452;16.994;2022-11-23T10:13:44;98664.66;;;3.61;100.00
75629;BME280;64213;46.452;16.994;2022-11-23T10:23:20;98662.44;;;3.69;100.00
75629;BME280;64213;46.452;16.994;2022-11-23T10:26:31;98665.88;;;3.69;100.00
75629;BME280;64213;46.452;16.994;2022-11-23T10:29:36;98669.16;;;3.73;100.00
75629;BME280;64213;46.452;16.994;2022-11-23T10:32:46;98660.41;;;3.74;100.00
75629;BME280;64213;46.452;16.994;2022-11-23T10:35:51;98652.37;;;3.77;100.00
75629;BME280;64213;46.452;16.994;2022-11-23T10:38:57;98656.56;;;3.80;100.00
75629;BME280;64213;46.452;16.994;2022-11-23T10:42:03;98658.94;;;3.84;100.00
75629;BME280;64213;46.452;16.994;2022-11-23T10:45:22;98659.69;;;3.86;100.00
75629;BME280;64213;46.452;16.994;2022-11-23T10:48:34;98666.41;;;3.90;100.00
75629;BME280;64213;46.452;16.994;2022-11-23T10:51:36;98668.75;;;3.95;100.00
75629;BME280;64213;46.452;16.994;2022-11-23T10:57:48;98665.47;;;3.91;100.00
75629;BME280;64213;46.452;16.994;2022-11-23T11:00:58;98669.97;;;3.89;100.00
75629;BME280;64213;46.452;16.994;2022-11-23T11:04:02;98673.59;;;3.87;100.00
75629;BME280;64213;46.452;16.994;2022-11-23T11:07:21;98680.03;;;3.81;100.00
75629;BME280;64213;46.452;16.994;2022-11-23T11:10:34;98683.84;;;3.76;100.00
75629;BME280;64213;46.452;16.994;2022-11-23T11:13:45;98688.22;;;3.75;100.00
75629;BME280;64213;46.452;16.994;2022-11-23T11:16:55;98680.50;;;3.73;100.00
75629;BME280;64213;46.452;16.994;2022-11-23T11:19:58;98684.97;;;3.71;100.00
75629;BME280;64213;46.452;16.994;2022-11-23T11:23:15;98677.78;;;3.75;100.00
75629;BME280;64213;46.452;16.994;2022-11-23T11:26:23;98677.09;;;3.71;100.00
75629;BME280;64213;46.452;16.994;2022-11-23T11:29:31;98692.44;;;3.78;100.00
75629;BME280;64213;46.452;16.994;2022-11-23T11:32:44;98699.28;;;3.80;100.00
75629;BME280;64213;46.452;16.994;2022-11-23T11:35:52;98694.78;;;3.82;100.00
75629;BME280;64213;46.452;16.994;2022-11-23T11:38:58;98700.69;;;3.86;100.00
75629;BME280;64213;46.452;16.994;2022-11-23T11:42:29;98704.16;;;3.86;100.00
75629;BME280;64213;46.452;16.994;2022-11-23T11:45:43;98704.06;;;3.88;100.00
75629;BME280;64213;46.452;16.994;2022-11-23T11:49:10;98707.63;;;3.87;100.00
75629;BME280;64213;46.452;16.994;2022-11-23T11:52:29;98713.69;;;3.87;100.00
75629;BME280;64213;46.452;16.994;2022-11-23T11:55:56;98708.53;;;3.86;100.00
75629;BME280;64213;46.452;16.994;2022-11-23T12:02:26;98719.69;;;3.89;100.00
75629;BME280;64213;46.452;16.994;2022-11-23T12:08:52;98723.88;;;3.92;100.00
75629;BME280;64213;46.452;16.994;2022-11-23T12:11:57;98729.75;;;3.95;100.00
75629;BME280;64213;46.452;16.994;2022-11-23T12:14:59;98725.22;;;3.99;100.00
75629;BME280;64213;46.452;16.994;2022-11-23T12:18:30;98734.06;;;3.96;100.00
75629;BME280;64213;46.452;16.994;2022-11-23T12:31:52;98744.72;;;3.93;100.00
75629;BME280;64213;46.452;16.994;2022-11-23T12:38:55;98744.72;;;3.93;100.00
75629;BME280;64213;46.452;16.994;2022-11-23T12:42:12;98739.50;;;3.93;100.00
75629;BME280;64213;46.452;16.994;2022-11-23T12:49:19;98752.16;;;3.85;100.00
75629;BME280;64213;46.452;16.994;2022-11-23T12:58:28;98762.06;;;3.80;100.00
75629;BME280;64213;46.452;16.994;2022-11-23T13:01:39;98762.12;;;3.79;100.00
75629;BME280;64213;46.452;16.994;2022-11-23T13:05:39;98757.72;;;3.79;100.00
75629;BME280;64213;46.452;16.994;2022-11-23T13:18:04;98759.81;;;3.88;100.00
75629;BME280;64213;46.452;16.994;2022-11-23T13:24:32;98774.34;;;3.94;100.00
75629;BME280;64213;46.452;16.994;2022-11-23T13:27:55;98767.50;;;3.91;100.00
75629;BME280;64213;46.452;16.994;2022-11-23T13:31:19;98778.72;;;3.93;100.00
75629;BME280;64213;46.452;16.994;2022-11-23T13:34:44;98782.28;;;3.92;100.00
75629;BME280;64213;46.452;16.994;2022-11-23T13:40:58;98791.97;;;3.90;100.00
75629;BME280;64213;46.452;16.994;2022-11-23T13:44:22;98791.97;;;3.90;100.00
75629;BME280;64213;46.452;16.994;2022-11-23T13:47:25;98795.53;;;3.89;100.00
75629;BME280;64213;46.452;16.994;2022-11-23T13:50:28;98798.06;;;3.91;100.00
75629;BME280;64213;46.452;16.994;2022-11-23T13:56:39;98785.25;;;3.86;100.00
75629;BME280;64213;46.452;16.994;2022-11-23T13:59:42;98805.81;;;3.92;100.00
75629;BME280;64213;46.452;16.994;2022-11-23T14:02:45;98801.44;;;3.93;100.00
75629;BME280;64213;46.452;16.994;2022-11-23T14:08:54;98807.56;;;3.92;100.00
75629;BME280;64213;46.452;16.994;2022-11-23T14:15:25;98810.28;;;3.90;100.00
75629;BME280;64213;46.452;16.994;2022-11-23T14:21:44;98819.75;;;3.93;100.00
75629;BME280;64213;46.452;16.994;2022-11-23T14:41:18;98825.97;;;3.90;100.00
75629;BME280;64213;46.452;16.994;2022-11-23T14:44:26;98835.63;;;3.90;100.00
75629;BME280;64213;46.452;16.994;2022-11-23T14:47:36;98832.16;;;3.89;100.00
75629;BME280;64213;46.452;16.994;2022-11-23T14:50:38;98844.28;;;3.90;100.00
75629;BME280;64213;46.452;16.994;2022-11-23T14:53:43;98846.06;;;3.90;100.00
75629;BME280;64213;46.452;16.994;2022-11-23T14:56:52;98841.75;;;3.89;100.00
75629;BME280;64213;46.452;16.994;2022-11-23T14:59:59;98854.84;;;3.89;100.00
75629;BME280;64213;46.452;16.994;2022-11-23T15:03:11;98851.38;;;3.88;100.00
75629;BME280;64213;46.452;16.994;2022-11-23T15:06:40;98851.53;;;3.85;100.00
75629;BME280;64213;46.452;16.994;2022-11-23T15:10:17;98849.78;;;3.86;100.00
75629;BME280;64213;46.452;16.994;2022-11-23T15:13:24;98849.87;;;3.84;100.00
75629;BME280;64213;46.452;16.994;2022-11-23T15:16:27;98859.50;;;3.84;100.00
75629;BME280;64213;46.452;16.994;2022-11-23T15:19:29;98854.25;;;3.84;100.00
75629;BME280;64213;46.452;16.994;2022-11-23T15:22:33;98858.66;;;3.83;100.00
75629;BME280;64213;46.452;16.994;2022-11-23T15:25:36;98855.28;;;3.81;100.00
75629;BME280;64213;46.452;16.994;2022-11-23T15:28:39;98860.56;;;3.80;100.00
75629;BME280;64213;46.452;16.994;2022-11-23T15:31:41;98870.97;;;3.81;100.00
75629;BME280;64213;46.452;16.994;2022-11-23T15:35:11;98870.12;;;3.81;100.00
75629;BME280;64213;46.452;16.994;2022-11-23T15:38:15;98868.50;;;3.78;100.00
75629;BME280;64213;46.452;16.994;2022-11-23T15:45:36;98870.97;;;3.81;100.00
75629;BME280;64213;46.452;16.994;2022-11-23T15:48:39;98875.34;;;3.81;100.00
75629;BME280;64213;46.452;16.994;2022-11-23T15:51:43;98877.97;;;3.81;100.00
75629;BME280;64213;46.452;16.994;2022-11-23T15:54:46;98878.81;;;3.81;100.00
75629;BME280;64213;46.452;16.994;2022-11-23T15:57:53;98884.88;;;3.82;100.00
75629;BME280;64213;46.452;16.994;2022-11-23T16:01:11;98888.34;;;3.82;100.00
75629;BME280;64213;46.452;16.994;2022-11-23T16:04:34;98886.66;;;3.81;100.00
75629;BME280;64213;46.452;16.994;2022-11-23T16:07:59;98891.88;;;3.81;100.00
75629;BME280;64213;46.452;16.994;2022-11-23T16:11:02;98892.66;;;3.83;100.00
75629;BME280;64213;46.452;16.994;2022-11-23T16:14:15;98892.66;;;3.83;100.00
75629;BME280;64213;46.452;16.994;2022-11-23T16:17:19;98890.03;;;3.83;100.00
75629;BME280;64213;46.452;16.994;2022-11-23T16:20:23;98896.94;;;3.84;100.00
75629;BME280;64213;46.452;16.994;2022-11-23T16:26:50;98904.88;;;3.83;100.00
75629;BME280;64213;46.452;16.994;2022-11-23T16:29:52;98900.66;;;3.80;100.00
75629;BME280;64213;46.452;16.994;2022-11-23T16:33:05;98903.13;;;3.83;100.00
75629;BME280;64213;46.452;16.994;2022-11-23T16:36:08;98908.19;;;3.86;100.00
75629;BME280;64213;46.452;16.994;2022-11-23T16:39:10;98906.41;;;3.87;100.00
75629;BME280;64213;46.452;16.994;2022-11-23T16:42:14;98913.16;;;3.91;100.00
75629;BME280;64213;46.452;16.994;2022-11-23T16:45:18;98904.28;;;3.93;100.00
75629;BME280;64213;46.452;16.994;2022-11-23T16:51:29;98902.69;;;3.91;100.00
75629;BME280;64213;46.452;16.994;2022-11-23T16:54:32;98904.53;;;3.89;100.00
75629;BME280;64213;46.452;16.994;2022-11-23T16:57:37;98907.09;;;3.90;100.00
75629;BME280;64213;46.452;16.994;2022-11-23T17:00:41;98912.47;;;3.87;100.00
75629;BME280;64213;46.452;16.994;2022-11-23T17:03:43;98919.37;;;3.88;100.00
75629;BME280;64213;46.452;16.994;2022-11-23T17:06:46;98915.88;;;3.89;100.00
75629;BME280;64213;46.452;16.994;2022-11-23T17:09:49;98917.53;;;3.90;100.00
75629;BME280;64213;46.452;16.994;2022-11-23T17:12:54;98918.47;;;3.89;100.00
75629;BME280;64213;46.452;16.994;2022-11-23T17:15:57;98914.94;;;3.90;100.00
75629;BME280;64213;46.452;16.994;2022-11-23T17:18:59;98912.31;;;3.90;100.00
75629;BME280;64213;46.452;16.994;2022-11-23T17:22:02;98911.47;;;3.90;100.00
75629;BME280;64213;46.452;16.994;2022-11-23T17:25:06;98920.06;;;3.92;100.00
75629;BME280;64213;46.452;16.994;2022-11-23T17:28:17;98921.78;;;3.93;100.00
75629;BME280;64213;46.452;16.994;2022-11-23T17:31:23;98927.84;;;3.93;100.00
75629;BME280;64213;46.452;16.994;2022-11-23T17:34:26;98925.28;;;3.92;100.00
75629;BME280;64213;46.452;16.994;2022-11-23T17:37:28;98927.16;;;3.90;100.00
75629;BME280;64213;46.452;16.994;2022-11-23T17:40:32;98930.69;;;3.89;100.00
75629;BME280;64213;46.452;16.994;2022-11-23T17:43:34;98937.78;;;3.87;100.00
75629;BME280;64213;46.452;16.994;2022-11-23T17:46:37;98943.94;;;3.86;100.00
75629;BME280;64213;46.452;16.994;2022-11-23T17:49:43;98943.25;;;3.82;100.00
75629;BME280;64213;46.452;16.994;2022-11-23T17:52:47;98933.75;;;3.81;100.00
75629;BME280;64213;46.452;16.994;2022-11-23T17:55:50;98936.50;;;3.78;100.00